Beaver Creek (Missouri), Bradleyville (07054080)

StateMissouriCurrentGood (490 cfs)
RiverBeaver CreekFlood - The river is flooding. Obstacles can be treacherous or deadly. The river should be avoided at this stage for casual trips and definitely for the inexperienced. Trips should be attempted only with protective gear and equipment.Flood(none)
Updated2019-10-13 19:15 (42 minutes ago)High - The river is high and potentially dangerous, especially for the young and / or inexperienced. Normal stream obstacles are sometimes difficult to navigate. Extended distances can be attempted, but canoe travel may not be advisable.High(none)
Discharge490 cfs (median: 48 cfs)Good - Conditions are ideal for a canoe or kayak. Boats typically will drag on fewer than one-quarter of riffles, if at all, and portages are unnecessary or rare. Normal float lengths can be attempted without a problem.Good200
Height3.98 feetLow - River is low but can still be floated. Some riffles are okay but most come with significant dragging and might need a portage. Float lengths should be reduced to accommodate low flow, dragging, and portages.Low100
TrendFalling (falling over 24 hours)Poor - River is too low to float comfortably. Most or all riffles will drag or must be portaged and some obstacles (such as slick shelf rock) cause undue problems. Avoid the river at this stage for casual paddling trips.Poor50
USGSExternal icon USGS Site for Bradleyville (07054080)LocationExternal icon Google Maps

Trending Data

Plot Image
ObservationHeightDischargeMaximum
Discharge
Minimum
Discharge
Mean
Discharge
P05P10P20P25P50
(Median)
P75P80P90P95
2019-10-13 19:15 3.98 490 495 (2010) 19 (2007) 85 20 25 28 28 48 85 94 258 470
2019-10-13 18:15 4.01 501 495 (2010) 19 (2007) 85 20 25 28 28 48 85 94 258 470
2019-10-13 17:15 4.02 505 495 (2010) 19 (2007) 85 20 25 28 28 48 85 94 258 470
2019-10-13 16:15 4.04 513 495 (2010) 19 (2007) 85 20 25 28 28 48 85 94 258 470
2019-10-13 15:15 4.08 528 495 (2010) 19 (2007) 85 20 25 28 28 48 85 94 258 470
2019-10-13 14:15 4.11 539 495 (2010) 19 (2007) 85 20 25 28 28 48 85 94 258 470
2019-10-13 13:15 4.12 543 495 (2010) 19 (2007) 85 20 25 28 28 48 85 94 258 470
2019-10-13 12:15 4.16 559 495 (2010) 19 (2007) 85 20 25 28 28 48 85 94 258 470
2019-10-13 11:15 4.19 570 495 (2010) 19 (2007) 85 20 25 28 28 48 85 94 258 470
2019-10-13 10:15 4.21 578 495 (2010) 19 (2007) 85 20 25 28 28 48 85 94 258 470
2019-10-13 09:15 4.27 603 495 (2010) 19 (2007) 85 20 25 28 28 48 85 94 258 470
2019-10-13 08:15 4.28 607 495 (2010) 19 (2007) 85 20 25 28 28 48 85 94 258 470
2019-10-13 07:15 4.30 615 495 (2010) 19 (2007) 85 20 25 28 28 48 85 94 258 470
2019-10-13 06:15 4.35 636 495 (2010) 19 (2007) 85 20 25 28 28 48 85 94 258 470
2019-10-13 05:15 4.35 636 495 (2010) 19 (2007) 85 20 25 28 28 48 85 94 258 470
2019-10-13 04:15 4.38 649 495 (2010) 19 (2007) 85 20 25 28 28 48 85 94 258 470
2019-10-13 03:15 4.43 670 495 (2010) 19 (2007) 85 20 25 28 28 48 85 94 258 470
2019-10-13 02:15 4.47 688 495 (2010) 19 (2007) 85 20 25 28 28 48 85 94 258 470
2019-10-13 01:15 4.50 701 495 (2010) 19 (2007) 85 20 25 28 28 48 85 94 258 470
2019-10-13 00:15 4.55 724 495 (2010) 19 (2007) 85 20 25 28 28 48 85 94 258 470
2019-10-12 23:15 4.62 756 597 (2010) 19 (2007) 83 20 25 29 29 45 65 84 225 526
2019-10-12 22:15 4.63 761 597 (2010) 19 (2007) 83 20 25 29 29 45 65 84 225 526
2019-10-12 21:15 4.66 775 597 (2010) 19 (2007) 83 20 25 29 29 45 65 84 225 526
2019-10-12 20:15 4.73 808 597 (2010) 19 (2007) 83 20 25 29 29 45 65 84 225 526
2019-10-12 19:15 4.73 808 597 (2010) 19 (2007) 83 20 25 29 29 45 65 84 225 526
2019-10-12 18:15 4.79 838 597 (2010) 19 (2007) 83 20 25 29 29 45 65 84 225 526
2019-10-12 17:15 4.84 863 597 (2010) 19 (2007) 83 20 25 29 29 45 65 84 225 526
2019-10-12 16:15 4.88 883 597 (2010) 19 (2007) 83 20 25 29 29 45 65 84 225 526
2019-10-12 15:15 4.93 909 597 (2010) 19 (2007) 83 20 25 29 29 45 65 84 225 526
2019-10-12 14:15 4.99 940 597 (2010) 19 (2007) 83 20 25 29 29 45 65 84 225 526
2019-10-12 13:15 5.03 961 597 (2010) 19 (2007) 83 20 25 29 29 45 65 84 225 526
2019-10-12 12:15 5.12 1010 597 (2010) 19 (2007) 83 20 25 29 29 45 65 84 225 526
2019-10-12 11:15 5.15 1030 597 (2010) 19 (2007) 83 20 25 29 29 45 65 84 225 526
2019-10-12 10:15 5.22 1070 597 (2010) 19 (2007) 83 20 25 29 29 45 65 84 225 526
2019-10-12 09:15 5.30 1110 597 (2010) 19 (2007) 83 20 25 29 29 45 65 84 225 526
2019-10-12 08:15 5.36 1150 597 (2010) 19 (2007) 83 20 25 29 29 45 65 84 225 526
2019-10-12 07:15 5.44 1200 597 (2010) 19 (2007) 83 20 25 29 29 45 65 84 225 526
2019-10-12 06:15 5.50 1230 597 (2010) 19 (2007) 83 20 25 29 29 45 65 84 225 526
2019-10-12 05:15 5.60 1290 597 (2010) 19 (2007) 83 20 25 29 29 45 65 84 225 526
2019-10-12 04:15 5.69 1350 597 (2010) 19 (2007) 83 20 25 29 29 45 65 84 225 526
2019-10-12 03:15 5.80 1420 597 (2010) 19 (2007) 83 20 25 29 29 45 65 84 225 526
2019-10-12 02:15 5.90 1490 597 (2010) 19 (2007) 83 20 25 29 29 45 65 84 225 526
2019-10-12 01:15 6.01 1570 597 (2010) 19 (2007) 83 20 25 29 29 45 65 84 225 526
2019-10-12 00:15 6.14 1660 597 (2010) 19 (2007) 83 20 25 29 29 45 65 84 225 526
2019-10-11 23:15 6.28 1770 876 (2010) 20 (2007) 107 21 26 29 31 42 60 70 408 821
2019-10-11 22:15 6.45 1900 876 (2010) 20 (2007) 107 21 26 29 31 42 60 70 408 821
2019-10-11 21:15 6.62 2030 876 (2010) 20 (2007) 107 21 26 29 31 42 60 70 408 821
2019-10-11 20:15 6.81 2190 876 (2010) 20 (2007) 107 21 26 29 31 42 60 70 408 821
2019-10-11 19:15 7.03 2390 876 (2010) 20 (2007) 107 21 26 29 31 42 60 70 408 821
2019-10-11 18:15 7.26 2600 876 (2010) 20 (2007) 107 21 26 29 31 42 60 70 408 821
2019-10-11 17:15 7.56 2890 876 (2010) 20 (2007) 107 21 26 29 31 42 60 70 408 821
2019-10-11 16:15 7.84 3180 876 (2010) 20 (2007) 107 21 26 29 31 42 60 70 408 821
2019-10-11 15:15 8.11 3460 876 (2010) 20 (2007) 107 21 26 29 31 42 60 70 408 821
2019-10-11 14:15 8.41 3780 876 (2010) 20 (2007) 107 21 26 29 31 42 60 70 408 821
2019-10-11 13:15 8.79 4200 876 (2010) 20 (2007) 107 21 26 29 31 42 60 70 408 821
2019-10-11 12:15 9.48 5040 876 (2010) 20 (2007) 107 21 26 29 31 42 60 70 408 821
2019-10-11 11:15 10.65 6720 876 (2010) 20 (2007) 107 21 26 29 31 42 60 70 408 821
2019-10-11 10:15 11.93 8870 876 (2010) 20 (2007) 107 21 26 29 31 42 60 70 408 821
2019-10-11 09:15 12.87 10700 876 (2010) 20 (2007) 107 21 26 29 31 42 60 70 408 821
2019-10-11 08:15 13.57 12200 876 (2010) 20 (2007) 107 21 26 29 31 42 60 70 408 821
2019-10-11 07:15 14.25 13800 876 (2010) 20 (2007) 107 21 26 29 31 42 60 70 408 821
2019-10-11 06:15 15.04 16300 876 (2010) 20 (2007) 107 21 26 29 31 42 60 70 408 821
2019-10-11 05:15 15.43 17600 876 (2010) 20 (2007) 107 21 26 29 31 42 60 70 408 821
2019-10-11 04:15 15.13 16600 876 (2010) 20 (2007) 107 21 26 29 31 42 60 70 408 821
2019-10-11 03:15 14.31 14000 876 (2010) 20 (2007) 107 21 26 29 31 42 60 70 408 821
2019-10-11 02:15 12.63 10200 876 (2010) 20 (2007) 107 21 26 29 31 42 60 70 408 821
2019-10-11 01:15 9.10 4570 876 (2010) 20 (2007) 107 21 26 29 31 42 60 70 408 821
2019-10-11 00:15 3.03 182 876 (2010) 20 (2007) 107 21 26 29 31 42 60 70 408 821
2019-10-10 23:15 2.76 131 1850 (2010) 20 (2007) 139 20 26 30 31 42 54 65 316 1500
2019-10-10 22:15 2.61 105 1850 (2010) 20 (2007) 139 20 26 30 31 42 54 65 316 1500
2019-10-10 21:15 2.64 110 1850 (2010) 20 (2007) 139 20 26 30 31 42 54 65 316 1500
2019-10-10 20:15 2.63 109 1850 (2010) 20 (2007) 139 20 26 30 31 42 54 65 316 1500
2019-10-10 19:15 2.62 107 1850 (2010) 20 (2007) 139 20 26 30 31 42 54 65 316 1500
2019-10-10 18:15 2.60 104 1850 (2010) 20 (2007) 139 20 26 30 31 42 54 65 316 1500
2019-10-10 17:15 2.58 101 1850 (2010) 20 (2007) 139 20 26 30 31 42 54 65 316 1500
2019-10-10 16:15 2.55 96 1850 (2010) 20 (2007) 139 20 26 30 31 42 54 65 316 1500
2019-10-10 15:15 2.55 96 1850 (2010) 20 (2007) 139 20 26 30 31 42 54 65 316 1500
2019-10-10 14:15 2.54 94 1850 (2010) 20 (2007) 139 20 26 30 31 42 54 65 316 1500
2019-10-10 13:15 2.57 99 1850 (2010) 20 (2007) 139 20 26 30 31 42 54 65 316 1500
2019-10-10 12:15 2.58 101 1850 (2010) 20 (2007) 139 20 26 30 31 42 54 65 316 1500
2019-10-10 11:15 2.58 101 1850 (2010) 20 (2007) 139 20 26 30 31 42 54 65 316 1500
2019-10-10 10:15 2.56 97 1850 (2010) 20 (2007) 139 20 26 30 31 42 54 65 316 1500
2019-10-10 09:15 2.59 102 1850 (2010) 20 (2007) 139 20 26 30 31 42 54 65 316 1500
2019-10-10 08:15 2.58 101 1850 (2010) 20 (2007) 139 20 26 30 31 42 54 65 316 1500
2019-10-10 07:15 2.59 102 1850 (2010) 20 (2007) 139 20 26 30 31 42 54 65 316 1500
2019-10-10 06:15 2.58 101 1850 (2010) 20 (2007) 139 20 26 30 31 42 54 65 316 1500
2019-10-10 05:15 2.59 102 1850 (2010) 20 (2007) 139 20 26 30 31 42 54 65 316 1500
2019-10-10 04:15 2.58 101 1850 (2010) 20 (2007) 139 20 26 30 31 42 54 65 316 1500
2019-10-10 03:15 2.59 102 1850 (2010) 20 (2007) 139 20 26 30 31 42 54 65 316 1500
2019-10-10 02:15 2.60 104 1850 (2010) 20 (2007) 139 20 26 30 31 42 54 65 316 1500
2019-10-10 01:15 2.60 104 1850 (2010) 20 (2007) 139 20 26 30 31 42 54 65 316 1500
2019-10-10 00:15 2.60 104 1850 (2010) 20 (2007) 139 20 26 30 31 42 54 65 316 1500
2019-10-09 23:15 2.61 105 5210 (2010) 18 (2007) 266 20 25 29 31 40 55 61 164 3970
2019-10-09 22:15 2.60 104 5210 (2010) 18 (2007) 266 20 25 29 31 40 55 61 164 3970
2019-10-09 21:15 2.61 105 5210 (2010) 18 (2007) 266 20 25 29 31 40 55 61 164 3970
2019-10-09 20:15 2.62 107 5210 (2010) 18 (2007) 266 20 25 29 31 40 55 61 164 3970
2019-10-09 19:15 2.62 107 5210 (2010) 18 (2007) 266 20 25 29 31 40 55 61 164 3970
2019-10-09 18:15 2.63 109 5210 (2010) 18 (2007) 266 20 25 29 31 40 55 61 164 3970
2019-10-09 17:15 2.63 109 5210 (2010) 18 (2007) 266 20 25 29 31 40 55 61 164 3970
2019-10-09 16:15 2.64 110 5210 (2010) 18 (2007) 266 20 25 29 31 40 55 61 164 3970
2019-10-09 15:15 2.63 109 5210 (2010) 18 (2007) 266 20 25 29 31 40 55 61 164 3970
2019-10-09 14:15 2.63 109 5210 (2010) 18 (2007) 266 20 25 29 31 40 55 61 164 3970
2019-10-09 13:15 2.64 110 5210 (2010) 18 (2007) 266 20 25 29 31 40 55 61 164 3970
2019-10-09 12:15 2.65 112 5210 (2010) 18 (2007) 266 20 25 29 31 40 55 61 164 3970
2019-10-09 11:15 2.65 112 5210 (2010) 18 (2007) 266 20 25 29 31 40 55 61 164 3970
2019-10-09 10:15 2.66 114 5210 (2010) 18 (2007) 266 20 25 29 31 40 55 61 164 3970
2019-10-09 09:15 2.67 115 5210 (2010) 18 (2007) 266 20 25 29 31 40 55 61 164 3970
2019-10-09 08:15 2.68 117 5210 (2010) 18 (2007) 266 20 25 29 31 40 55 61 164 3970
2019-10-09 07:15 2.67 115 5210 (2010) 18 (2007) 266 20 25 29 31 40 55 61 164 3970
2019-10-09 06:15 2.67 115 5210 (2010) 18 (2007) 266 20 25 29 31 40 55 61 164 3970
2019-10-09 05:15 2.68 117 5210 (2010) 18 (2007) 266 20 25 29 31 40 55 61 164 3970
2019-10-09 04:15 2.67 115 5210 (2010) 18 (2007) 266 20 25 29 31 40 55 61 164 3970
2019-10-09 03:15 2.69 119 5210 (2010) 18 (2007) 266 20 25 29 31 40 55 61 164 3970
2019-10-09 02:15 2.69 119 5210 (2010) 18 (2007) 266 20 25 29 31 40 55 61 164 3970
2019-10-09 01:15 2.69 119 5210 (2010) 18 (2007) 266 20 25 29 31 40 55 61 164 3970
2019-10-09 00:15 2.69 119 5210 (2010) 18 (2007) 266 20 25 29 31 40 55 61 164 3970
2019-10-08 23:15 2.68 117 342 (1999) 18 (2007) 58 20 24 28 29 39 55 66 105 287
2019-10-08 22:15 2.67 115 342 (1999) 18 (2007) 58 20 24 28 29 39 55 66 105 287
2019-10-08 21:15 2.71 122 342 (1999) 18 (2007) 58 20 24 28 29 39 55 66 105 287
2019-10-08 20:15 2.72 124 342 (1999) 18 (2007) 58 20 24 28 29 39 55 66 105 287
2019-10-08 19:15 2.72 124 342 (1999) 18 (2007) 58 20 24 28 29 39 55 66 105 287
2019-10-08 18:15 2.74 127 342 (1999) 18 (2007) 58 20 24 28 29 39 55 66 105 287
2019-10-08 17:15 2.74 127 342 (1999) 18 (2007) 58 20 24 28 29 39 55 66 105 287
2019-10-08 16:15 2.74 127 342 (1999) 18 (2007) 58 20 24 28 29 39 55 66 105 287
2019-10-08 15:15 2.74 127 342 (1999) 18 (2007) 58 20 24 28 29 39 55 66 105 287
2019-10-08 14:15 2.77 132 342 (1999) 18 (2007) 58 20 24 28 29 39 55 66 105 287
2019-10-08 13:15 2.79 136 342 (1999) 18 (2007) 58 20 24 28 29 39 55 66 105 287
2019-10-08 12:15 2.80 137 342 (1999) 18 (2007) 58 20 24 28 29 39 55 66 105 287
2019-10-08 11:15 2.81 139 342 (1999) 18 (2007) 58 20 24 28 29 39 55 66 105 287
2019-10-08 10:15 2.82 141 342 (1999) 18 (2007) 58 20 24 28 29 39 55 66 105 287
2019-10-08 09:15 2.84 144 342 (1999) 18 (2007) 58 20 24 28 29 39 55 66 105 287
2019-10-08 08:15 2.86 148 342 (1999) 18 (2007) 58 20 24 28 29 39 55 66 105 287
2019-10-08 07:15 2.86 148 342 (1999) 18 (2007) 58 20 24 28 29 39 55 66 105 287
2019-10-08 06:15 2.89 154 342 (1999) 18 (2007) 58 20 24 28 29 39 55 66 105 287
2019-10-08 05:15 2.90 156 342 (1999) 18 (2007) 58 20 24 28 29 39 55 66 105 287
2019-10-08 04:15 2.91 158 342 (1999) 18 (2007) 58 20 24 28 29 39 55 66 105 287
2019-10-08 03:15 2.91 158 342 (1999) 18 (2007) 58 20 24 28 29 39 55 66 105 287
2019-10-08 02:15 2.93 162 342 (1999) 18 (2007) 58 20 24 28 29 39 55 66 105 287
2019-10-08 01:15 2.95 166 342 (1999) 18 (2007) 58 20 24 28 29 39 55 66 105 287
2019-10-08 00:15 2.97 170 342 (1999) 18 (2007) 58 20 24 28 29 39 55 66 105 287
2019-10-07 23:15 2.99 174 578 (1999) 18 (2007) 66 19 23 28 29 39 57 67 88 458
2019-10-07 22:15 3.01 178 578 (1999) 18 (2007) 66 19 23 28 29 39 57 67 88 458
2019-10-07 21:15 3.02 180 578 (1999) 18 (2007) 66 19 23 28 29 39 57 67 88 458
2019-10-07 20:15 3.03 182 578 (1999) 18 (2007) 66 19 23 28 29 39 57 67 88 458
2019-10-07 19:15 3.06 189 578 (1999) 18 (2007) 66 19 23 28 29 39 57 67 88 458
2019-10-07 18:15 3.07 191 578 (1999) 18 (2007) 66 19 23 28 29 39 57 67 88 458
2019-10-07 17:15 3.11 200 578 (1999) 18 (2007) 66 19 23 28 29 39 57 67 88 458
2019-10-07 16:15 3.12 202 578 (1999) 18 (2007) 66 19 23 28 29 39 57 67 88 458
2019-10-07 15:15 3.16 211 578 (1999) 18 (2007) 66 19 23 28 29 39 57 67 88 458
2019-10-07 14:15 3.19 218 578 (1999) 18 (2007) 66 19 23 28 29 39 57 67 88 458
2019-10-07 13:15 3.22 225 578 (1999) 18 (2007) 66 19 23 28 29 39 57 67 88 458
2019-10-07 12:15 3.25 233 578 (1999) 18 (2007) 66 19 23 28 29 39 57 67 88 458
2019-10-07 11:15 3.30 245 578 (1999) 18 (2007) 66 19 23 28 29 39 57 67 88 458
2019-10-07 10:15 3.33 253 578 (1999) 18 (2007) 66 19 23 28 29 39 57 67 88 458
2019-10-07 09:15 3.40 271 578 (1999) 18 (2007) 66 19 23 28 29 39 57 67 88 458
2019-10-07 08:15 3.44 282 578 (1999) 18 (2007) 66 19 23 28 29 39 57 67 88 458
2019-10-07 07:15 3.49 296 578 (1999) 18 (2007) 66 19 23 28 29 39 57 67 88 458
2019-10-07 06:15 3.53 307 578 (1999) 18 (2007) 66 19 23 28 29 39 57 67 88 458
2019-10-07 05:15 3.60 327 578 (1999) 18 (2007) 66 19 23 28 29 39 57 67 88 458
2019-10-07 04:15 3.67 349 578 (1999) 18 (2007) 66 19 23 28 29 39 57 67 88 458
2019-10-07 03:15 3.72 364 578 (1999) 18 (2007) 66 19 23 28 29 39 57 67 88 458
2019-10-07 02:15 3.73 367 578 (1999) 18 (2007) 66 19 23 28 29 39 57 67 88 458
2019-10-07 01:15 3.69 355 578 (1999) 18 (2007) 66 19 23 28 29 39 57 67 88 458
2019-10-07 00:15 3.71 361 578 (1999) 18 (2007) 66 19 23 28 29 39 57 67 88 458
2019-10-06 23:15 3.79 387 583 (1999) 18 (2007) 67 19 23 28 29 40 62 66 87 464
2019-10-06 22:15 3.89 420 583 (1999) 18 (2007) 67 19 23 28 29 40 62 66 87 464
2019-10-06 21:15 4.04 473 583 (1999) 18 (2007) 67 19 23 28 29 40 62 66 87 464
2019-10-06 20:15 4.19 530 583 (1999) 18 (2007) 67 19 23 28 29 40 62 66 87 464
2019-10-06 19:15 4.35 595 583 (1999) 18 (2007) 67 19 23 28 29 40 62 66 87 464
2019-10-06 18:15 4.32 583 583 (1999) 18 (2007) 67 19 23 28 29 40 62 66 87 464
2019-10-06 17:15 4.10 496 583 (1999) 18 (2007) 67 19 23 28 29 40 62 66 87 464
2019-10-06 16:15 3.63 336 583 (1999) 18 (2007) 67 19 23 28 29 40 62 66 87 464
2019-10-06 15:15 3.38 266 583 (1999) 18 (2007) 67 19 23 28 29 40 62 66 87 464
2019-10-06 14:15 3.34 255 583 (1999) 18 (2007) 67 19 23 28 29 40 62 66 87 464
2019-10-06 13:15 3.35 258 583 (1999) 18 (2007) 67 19 23 28 29 40 62 66 87 464
2019-10-06 12:15 3.20 221 583 (1999) 18 (2007) 67 19 23 28 29 40 62 66 87 464
2019-10-06 11:15 2.85 146 583 (1999) 18 (2007) 67 19 23 28 29 40 62 66 87 464
2019-10-06 10:15 2.73 125 583 (1999) 18 (2007) 67 19 23 28 29 40 62 66 87 464
2019-10-06 09:15 2.64 110 583 (1999) 18 (2007) 67 19 23 28 29 40 62 66 87 464
2019-10-06 08:15 2.54 94 583 (1999) 18 (2007) 67 19 23 28 29 40 62 66 87 464
2019-10-06 07:15 2.50 88 583 (1999) 18 (2007) 67 19 23 28 29 40 62 66 87 464
2019-10-06 06:15 2.47 84 583 (1999) 18 (2007) 67 19 23 28 29 40 62 66 87 464
2019-10-06 05:15 2.40 74 583 (1999) 18 (2007) 67 19 23 28 29 40 62 66 87 464
2019-10-06 04:15 2.36 68 583 (1999) 18 (2007) 67 19 23 28 29 40 62 66 87 464
2019-10-06 03:15 2.35 67 583 (1999) 18 (2007) 67 19 23 28 29 40 62 66 87 464
2019-10-06 02:15 2.30 60 583 (1999) 18 (2007) 67 19 23 28 29 40 62 66 87 464
2019-10-06 01:15 2.28 58 583 (1999) 18 (2007) 67 19 23 28 29 40 62 66 87 464
2019-10-06 00:15 2.27 56 583 (1999) 18 (2007) 67 19 23 28 29 40 62 66 87 464

A total of 188 rows are displayed for years 1995 through 2018.

Trips for Beaver Creek (Missouri), Bradleyville (07054080)

DateStartEndDistanceConditionDischargeHeightFishingDetails
Click for details2019-05-25 Jackson Mill CR 437 Total trip distance: 9.2 miles9.2 Good 629 4.43 Great GSF
RB
SMB
GSF, RB, SMB
Bartlett, Joe
Bartlett, Renee
Edmond, Brian
Edmond, Julian
Grindstaff, Brian
Grindstaff, Nathaniel
Hayes, Katie
Larsen, Lisa
Travers, Gina
Tuter, Kristin
Van Someren, Tom
Bartlett, Joe; Bartlett, Renee; Edmond, Brian; Edmond, Julian; Grindstaff, Brian; Grindstaff, Nathaniel; Hayes, Katie; Larsen, Lisa; Travers, Gina; Tuter, Kristin; Van Someren, Tom
The water level on this trip was nearly perfect. There is no access at MO 76 despite the guidebook information. We put in at Jackson Hollow instead. The takeout is now gated and the landowner there is not friendly to paddlers (as we were told by some locals).The water level on this trip was nearly perfect. There is no access at MO 76 despite the guidebook information. We put in at Jackson Hollow instead. The takeout is now gated and the landowner there is not friendly to paddlers (as we were told by some locals). USGS Gauge Data:
Bradleyville (07054080)
Discharge: 629
Height: 4.43
<b>USGS Gauge Data:</b></br />Bradleyville (07054080)<br />Discharge: 629<br />Height: 4.43
Source: EdmondSource: Edmond
Click for details2017-04-01 Brownbranch Bradleyville Total trip distance: 7.9 miles7.9 Good 532 4.01 Good LSF
SMB
LSF, SMB
Arnold, Al
Edmond, Brian
Edmond, Julian
Larsen, Chris
Larsen, Lisa
Turk, Scott
Van Someren, Tom
Arnold, Al; Edmond, Brian; Edmond, Julian; Larsen, Chris; Larsen, Lisa; Turk, Scott; Van Someren, Tom
The water was still high but coming down. It was relatively clear but still murky. At about 2/3 and 3/4, there were at least three tree obstacles that would have blocked us at a lower water level. Fortunately, there is an outfitter at Brownbranch that does some work clearing the river.The water was still high but coming down. It was relatively clear but still murky. At about 2/3 and 3/4, there were at least three tree obstacles that would have blocked us at a lower water level. Fortunately, there is an outfitter at Brownbranch that does some work clearing the river. USGS Gauge Data:
Bradleyville (07054080)
Discharge: 532
Height: 4.01
<b>USGS Gauge Data:</b></br />Bradleyville (07054080)<br />Discharge: 532<br />Height: 4.01
Source: EdmondSource: Edmond
Click for details2019-04-21 Brownbranch Bradleyville Total trip distance: 7.9 miles7.9 Good 496 3.96 Fair BLG
GSF
SMB
BLG, GSF, SMB
Bartlett, Joe
Bartlett, Renee
Dudenhoffer, Todd
Van Someren, Tom
Bartlett, Joe; Bartlett, Renee; Dudenhoffer, Todd; Van Someren, Tom
The water level was absolutely STELLAR, moving along great the entire length. No obstructions in the river, either. While the number of fish we caught placed us in the "fair" region we all judged the fishing as "poor". Note too: Beaver Creek Canoe Rental is charging floaters a $10 per boat "Access fee" to put in there.The water level was absolutely STELLAR, moving along great the entire length. No obstructions in the river, either. While the number of fish we caught placed us in the USGS Gauge Data:
Bradleyville (07054080)
Discharge: 496
Height: 3.96
<b>USGS Gauge Data:</b></br />Bradleyville (07054080)<br />Discharge: 496<br />Height: 3.96
Source: Van SomerenSource: Van Someren
Click for details2016-07-16 Brownbranch Bradleyville Total trip distance: 7.9 miles7.9 Good 276 3.15 Excellent LSF
GSF
LMB
SMB
RB
LSF, GSF, LMB, SMB, RB
Amburn, Andrea
Amburn, Matt
Dudenhoeffer, Todd
Edmond, Brian
Eth, Joe
Van Someren, Tom
Amburn, Andrea; Amburn, Matt; Dudenhoeffer, Todd; Edmond, Brian; Eth, Joe; Van Someren, Tom
This was an excellent float trip. The water was nearly perfect (a little bit higher would have been nice but it was fantastic just like this). Joe caught more than 50 fish. I caught nearly 30 or more. Even when we didn't catch anything, we could feel fish hitting the lure.This was an excellent float trip. The water was nearly perfect (a little bit higher would have been nice but it was fantastic just like this). Joe caught more than 50 fish. I caught nearly 30 or more. Even when we didn't catch anything, we could feel fish hitting the lure. USGS Gauge Data:
Bradleyville (07054080)
Discharge: 276
Height: 3.15
<b>USGS Gauge Data:</b></br />Bradleyville (07054080)<br />Discharge: 276<br />Height: 3.15
Source: EdmondSource: Edmond
Click for details2015-04-21 Brownbranch Bradleyville Total trip distance: 7.9 miles7.9 Good 210 2.63 Good SMB
RB
SMB, RB
Coroleuski, Linda
Edmond, Brian
Ligon, Day
McKnight, Don
Coroleuski, Linda; Edmond, Brian; Ligon, Day; McKnight, Don
The river level was nearly perfect although there were a few places where the water level was a bit low. I wouldn't want to float this river any lower than this, except as a good fishing trip.The river level was nearly perfect although there were a few places where the water level was a bit low. I wouldn't want to float this river any lower than this, except as a good fishing trip. USGS Gauge Data:
Bradleyville (07054080)
Discharge: 210
Height: 2.63
<b>USGS Gauge Data:</b></br />Bradleyville (07054080)<br />Discharge: 210<br />Height: 2.63
Source: EdmondSource: Edmond
Click for details2009-08-19 Brownbranch Bradleyville Total trip distance: 7.9 miles7.9 Low 77 1.81 Excellent SMB
RB
LSF
BLG
SMB, RB, LSF, BLG
Fillmore, Brian
Ligon, Day
Fillmore, Brian; Ligon, Day
No notes for this trip<i>No notes for this trip</i> USGS Gauge Data:
Bradleyville (07054080)
Discharge: 77
Height: 1.81
<b>USGS Gauge Data:</b></br />Bradleyville (07054080)<br />Discharge: 77<br />Height: 1.81
Source: FillmoreSource: Fillmore
Click for details2009-08-22 Brownbranch Bradleyville Total trip distance: 7.9 miles7.9 Poor 74 1.79 None NoneNone Bowe, Michelle
Edmond, Alex
Edmond, Brian
Edmond, Joseph
Bowe, Michelle; Edmond, Alex; Edmond, Brian; Edmond, Joseph
No notes for this trip<i>No notes for this trip</i> USGS Gauge Data:
Bradleyville (07054080)
Discharge: 74
Height: 1.79
<b>USGS Gauge Data:</b></br />Bradleyville (07054080)<br />Discharge: 74<br />Height: 1.79
Source: EdmondSource: Edmond

A total of 7 rows are displayed.

Trip Summary for Beaver Creek (Missouri), Bradleyville (07054080)

Miles56.6
Trips7
People26
Dates7
Years5
Months4
Rows7
Sources3

Condition Descriptions

Fishing Conditions

Fish Species

Notes

Classic Trip List

The classic River Trips application is still available for use. It is updated with the new system using a data retrofit. It is no longer maintained. The original River Trips application is no longer updated (as of 1 Dec 2016) but can be checked for errors or for the condition of the data before it was converted to the new system.